Accueil
METAR-TAF:

METAR-TAF

Aéroports :

Dare County Regional Airport

Manteo, Caroline du Nord, États-Unis

latitude: 35-55N, longitude: 075-42W, altitude: 4 m

Observation

Le bulletin a été fait il y a 30 minutes, à 21:55 UTC
Vent 15 kt de sud-ouest
Température 10°C
Humidité 40%
Pression 1014 hPa
Visibilité: 16.1 km
Ciel clair

METAR: KMQI 282155Z AUTO 22015KT 10SM CLR 10/M03 A2995 RMK AO2 T00951026

Heure: 17:25 (22:25 UTC)


TAF: absent

Observations et prévisions météorologiques de plus de 4000 aéroports (messages METAR et TAF).

Les stations disponibles sont représentées par des disques jaunes et rouges sur la carte.

Passer la souris dessus pour voir le nom de la station.

Cliquer dessus pour voir les observations et prévisions météorologiques.

Pour changer de carte: cliquez sur les boutons verts avec une croix noire pour zoomer, sur le bouton vert avec un tiret pour effectuer un zoom arrière, ou sur les flèches vertes pour les cartes adjacentes.


METAR-TAF: